sensor_id;sensor_type;location;lat;lon;timestamp;temperature;humidity
12438;DHT22;6283;51.330;12.374;2023-07-31T00:00:25;15.30;1.00
12438;DHT22;6283;51.330;12.374;2023-07-31T00:02:52;15.40;1.00
12438;DHT22;6283;51.330;12.374;2023-07-31T00:05:17;15.40;1.00
12438;DHT22;6283;51.330;12.374;2023-07-31T00:07:43;15.40;1.00
12438;DHT22;6283;51.330;12.374;2023-07-31T00:10:09;15.40;1.00
12438;DHT22;6283;51.330;12.374;2023-07-31T00:12:35;15.40;1.00
12438;DHT22;6283;51.330;12.374;2023-07-31T00:15:01;15.40;1.00
12438;DHT22;6283;51.330;12.374;2023-07-31T00:17:26;15.50;1.00
12438;DHT22;6283;51.330;12.374;2023-07-31T00:19:52;15.50;1.00
12438;DHT22;6283;51.330;12.374;2023-07-31T00:22:17;15.50;1.00
12438;DHT22;6283;51.330;12.374;2023-07-31T00:24:43;15.50;1.00
12438;DHT22;6283;51.330;12.374;2023-07-31T00:27:09;15.50;1.00
12438;DHT22;6283;51.330;12.374;2023-07-31T00:29:34;15.60;1.00
12438;DHT22;6283;51.330;12.374;2023-07-31T00:32:00;15.60;1.00
12438;DHT22;6283;51.330;12.374;2023-07-31T00:34:26;15.50;1.00
12438;DHT22;6283;51.330;12.374;2023-07-31T00:36:52;15.60;1.00
12438;DHT22;6283;51.330;12.374;2023-07-31T00:39:17;15.60;1.00
12438;DHT22;6283;51.330;12.374;2023-07-31T00:41:43;15.60;1.00
12438;DHT22;6283;51.330;12.374;2023-07-31T00:44:08;15.60;1.00
12438;DHT22;6283;51.330;12.374;2023-07-31T00:46:34;15.60;1.00
12438;DHT22;6283;51.330;12.374;2023-07-31T00:49:00;15.60;1.00
12438;DHT22;6283;51.330;12.374;2023-07-31T00:51:26;15.60;1.00
12438;DHT22;6283;51.330;12.374;2023-07-31T00:53:51;15.60;1.00
12438;DHT22;6283;51.330;12.374;2023-07-31T00:56:19;15.50;1.00
12438;DHT22;6283;51.330;12.374;2023-07-31T00:58:45;15.50;99.90
12438;DHT22;6283;51.330;12.374;2023-07-31T01:01:11;15.50;99.90
12438;DHT22;6283;51.330;12.374;2023-07-31T01:03:36;15.50;99.90
12438;DHT22;6283;51.330;12.374;2023-07-31T01:09:09;15.70;99.90
12438;DHT22;6283;51.330;12.374;2023-07-31T01:11:53;15.70;99.90
12438;DHT22;6283;51.330;12.374;2023-07-31T01:14:21;15.80;99.90
12438;DHT22;6283;51.330;12.374;2023-07-31T01:16:47;15.80;99.90
12438;DHT22;6283;51.330;12.374;2023-07-31T01:19:14;15.80;99.90
12438;DHT22;6283;51.330;12.374;2023-07-31T01:24:58;15.80;99.90
12438;DHT22;6283;51.330;12.374;2023-07-31T01:27:30;15.80;99.90
12438;DHT22;6283;51.330;12.374;2023-07-31T01:29:58;15.80;72.70
12438;DHT22;6283;51.330;12.374;2023-07-31T01:32:25;15.80;1.00
12438;DHT22;6283;51.330;12.374;2023-07-31T01:34:53;15.80;1.00
12438;DHT22;6283;51.330;12.374;2023-07-31T01:37:22;15.80;36.80
12438;DHT22;6283;51.330;12.374;2023-07-31T01:39:53;15.80;29.70
12438;DHT22;6283;51.330;12.374;2023-07-31T01:42:18;15.70;43.10
12438;DHT22;6283;51.330;12.374;2023-07-31T01:44:44;15.80;1.00
12438;DHT22;6283;51.330;12.374;2023-07-31T01:47:10;15.90;1.00
12438;DHT22;6283;51.330;12.374;2023-07-31T01:49:35;15.80;1.00
12438;DHT22;6283;51.330;12.374;2023-07-31T01:52:01;15.90;1.00
12438;DHT22;6283;51.330;12.374;2023-07-31T01:54:26;15.90;1.00
12438;DHT22;6283;51.330;12.374;2023-07-31T01:56:52;15.90;1.00
12438;DHT22;6283;51.330;12.374;2023-07-31T01:59:17;15.90;1.00
12438;DHT22;6283;51.330;12.374;2023-07-31T02:01:43;15.90;99.90
12438;DHT22;6283;51.330;12.374;2023-07-31T02:04:09;16.00;99.90
12438;DHT22;6283;51.330;12.374;2023-07-31T02:06:34;16.00;99.90
12438;DHT22;6283;51.330;12.374;2023-07-31T02:09:00;16.00;69.40
12438;DHT22;6283;51.330;12.374;2023-07-31T02:11:26;16.00;1.00
12438;DHT22;6283;51.330;12.374;2023-07-31T02:13:51;16.00;1.00
12438;DHT22;6283;51.330;12.374;2023-07-31T02:16:17;16.10;1.00
12438;DHT22;6283;51.330;12.374;2023-07-31T02:18:43;16.10;99.90
12438;DHT22;6283;51.330;12.374;2023-07-31T02:21:08;16.20;99.90
12438;DHT22;6283;51.330;12.374;2023-07-31T02:23:34;16.20;99.90
12438;DHT22;6283;51.330;12.374;2023-07-31T02:25:59;16.30;99.90
12438;DHT22;6283;51.330;12.374;2023-07-31T02:28:25;16.40;69.50
12438;DHT22;6283;51.330;12.374;2023-07-31T02:30:51;16.40;17.40
12438;DHT22;6283;51.330;12.374;2023-07-31T02:33:17;16.50;1.00
12438;DHT22;6283;51.330;12.374;2023-07-31T02:35:43;16.50;1.00
12438;DHT22;6283;51.330;12.374;2023-07-31T02:38:08;16.60;1.00
12438;DHT22;6283;51.330;12.374;2023-07-31T02:40:34;16.60;1.00
12438;DHT22;6283;51.330;12.374;2023-07-31T02:43:00;16.60;1.00
12438;DHT22;6283;51.330;12.374;2023-07-31T02:45:25;16.60;1.00
12438;DHT22;6283;51.330;12.374;2023-07-31T02:47:51;16.70;1.00
12438;DHT22;6283;51.330;12.374;2023-07-31T02:50:17;16.70;1.00
12438;DHT22;6283;51.330;12.374;2023-07-31T02:52:42;16.70;1.00
12438;DHT22;6283;51.330;12.374;2023-07-31T02:55:08;16.60;1.00
12438;DHT22;6283;51.330;12.374;2023-07-31T02:57:34;16.60;1.00
12438;DHT22;6283;51.330;12.374;2023-07-31T02:59:59;16.70;1.00
12438;DHT22;6283;51.330;12.374;2023-07-31T03:02:25;16.70;1.00
12438;DHT22;6283;51.330;12.374;2023-07-31T03:04:51;16.60;1.00
12438;DHT22;6283;51.330;12.374;2023-07-31T03:07:16;16.60;1.00
12438;DHT22;6283;51.330;12.374;2023-07-31T03:09:42;16.60;1.00
12438;DHT22;6283;51.330;12.374;2023-07-31T03:12:08;16.60;1.00
12438;DHT22;6283;51.330;12.374;2023-07-31T03:14:34;16.60;1.00
12438;DHT22;6283;51.330;12.374;2023-07-31T03:16:59;16.60;1.00
12438;DHT22;6283;51.330;12.374;2023-07-31T03:19:25;16.60;1.00
12438;DHT22;6283;51.330;12.374;2023-07-31T03:21:50;16.60;1.00
12438;DHT22;6283;51.330;12.374;2023-07-31T03:24:16;16.60;1.00
12438;DHT22;6283;51.330;12.374;2023-07-31T03:26:42;16.60;1.00
12438;DHT22;6283;51.330;12.374;2023-07-31T03:29:08;16.60;1.00
12438;DHT22;6283;51.330;12.374;2023-07-31T03:31:33;16.60;1.00
12438;DHT22;6283;51.330;12.374;2023-07-31T03:33:59;16.50;1.00
12438;DHT22;6283;51.330;12.374;2023-07-31T03:36:25;16.50;1.00
12438;DHT22;6283;51.330;12.374;2023-07-31T03:38:51;16.50;1.00
12438;DHT22;6283;51.330;12.374;2023-07-31T03:41:17;16.50;1.00
12438;DHT22;6283;51.330;12.374;2023-07-31T03:43:43;16.50;1.00
12438;DHT22;6283;51.330;12.374;2023-07-31T03:46:08;16.50;1.00
12438;DHT22;6283;51.330;12.374;2023-07-31T03:48:34;16.50;1.00
12438;DHT22;6283;51.330;12.374;2023-07-31T03:50:59;16.40;1.00
12438;DHT22;6283;51.330;12.374;2023-07-31T03:53:25;16.40;1.00
12438;DHT22;6283;51.330;12.374;2023-07-31T03:55:51;16.40;1.00
12438;DHT22;6283;51.330;12.374;2023-07-31T03:58:16;16.40;1.00
12438;DHT22;6283;51.330;12.374;2023-07-31T04:00:42;16.40;1.00
12438;DHT22;6283;51.330;12.374;2023-07-31T04:03:07;16.40;1.00
12438;DHT22;6283;51.330;12.374;2023-07-31T04:05:33;16.30;1.00
12438;DHT22;6283;51.330;12.374;2023-07-31T04:08:03;16.40;1.00
12438;DHT22;6283;51.330;12.374;2023-07-31T04:10:29;16.40;1.00
12438;DHT22;6283;51.330;12.374;2023-07-31T04:12:55;16.40;1.00
12438;DHT22;6283;51.330;12.374;2023-07-31T04:15:21;16.40;1.00
12438;DHT22;6283;51.330;12.374;2023-07-31T04:17:46;16.40;1.00
12438;DHT22;6283;51.330;12.374;2023-07-31T04:20:12;16.40;1.00
12438;DHT22;6283;51.330;12.374;2023-07-31T04:22:37;16.30;1.00
12438;DHT22;6283;51.330;12.374;2023-07-31T04:25:03;16.40;1.00
12438;DHT22;6283;51.330;12.374;2023-07-31T04:27:29;16.40;1.00
12438;DHT22;6283;51.330;12.374;2023-07-31T04:29:54;16.40;1.00
12438;DHT22;6283;51.330;12.374;2023-07-31T04:32:20;16.40;1.00
12438;DHT22;6283;51.330;12.374;2023-07-31T04:34:46;16.40;11.30
12438;DHT22;6283;51.330;12.374;2023-07-31T04:37:11;16.40;26.50
12438;DHT22;6283;51.330;12.374;2023-07-31T04:39:37;16.30;41.50
12438;DHT22;6283;51.330;12.374;2023-07-31T04:42:03;16.30;75.40
12438;DHT22;6283;51.330;12.374;2023-07-31T04:44:29;16.30;99.90
12438;DHT22;6283;51.330;12.374;2023-07-31T04:46:55;16.30;99.90
12438;DHT22;6283;51.330;12.374;2023-07-31T04:49:21;16.20;99.90
12438;DHT22;6283;51.330;12.374;2023-07-31T04:51:47;16.20;99.90
12438;DHT22;6283;51.330;12.374;2023-07-31T04:54:13;16.20;1.00
12438;DHT22;6283;51.330;12.374;2023-07-31T04:56:40;16.10;1.00
12438;DHT22;6283;51.330;12.374;2023-07-31T04:59:06;16.00;49.90
12438;DHT22;6283;51.330;12.374;2023-07-31T05:01:32;15.90;99.90
12438;DHT22;6283;51.330;12.374;2023-07-31T05:03:57;15.90;1.00
12438;DHT22;6283;51.330;12.374;2023-07-31T05:06:23;15.80;40.60
12438;DHT22;6283;51.330;12.374;2023-07-31T05:08:49;15.80;99.90
12438;DHT22;6283;51.330;12.374;2023-07-31T05:11:14;15.80;1.00
12438;DHT22;6283;51.330;12.374;2023-07-31T05:13:40;15.80;1.00
12438;DHT22;6283;51.330;12.374;2023-07-31T05:16:05;15.80;99.90
12438;DHT22;6283;51.330;12.374;2023-07-31T05:18:31;15.70;99.90
12438;DHT22;6283;51.330;12.374;2023-07-31T05:20:56;15.70;1.00
12438;DHT22;6283;51.330;12.374;2023-07-31T05:23:22;15.70;99.90
12438;DHT22;6283;51.330;12.374;2023-07-31T05:25:48;15.70;21.80
12438;DHT22;6283;51.330;12.374;2023-07-31T05:28:13;15.70;99.90
12438;DHT22;6283;51.330;12.374;2023-07-31T05:30:39;15.70;1.00
12438;DHT22;6283;51.330;12.374;2023-07-31T05:33:04;15.60;99.90
12438;DHT22;6283;51.330;12.374;2023-07-31T05:35:30;15.60;1.00
12438;DHT22;6283;51.330;12.374;2023-07-31T05:37:56;15.60;1.00
12438;DHT22;6283;51.330;12.374;2023-07-31T05:40:21;15.70;1.00
12438;DHT22;6283;51.330;12.374;2023-07-31T05:42:47;15.70;99.90
12438;DHT22;6283;51.330;12.374;2023-07-31T05:45:12;15.70;98.20
12438;DHT22;6283;51.330;12.374;2023-07-31T05:47:39;15.70;99.90
12438;DHT22;6283;51.330;12.374;2023-07-31T05:50:05;15.70;1.00
12438;DHT22;6283;51.330;12.374;2023-07-31T05:52:30;15.80;1.00
12438;DHT22;6283;51.330;12.374;2023-07-31T05:54:56;15.80;19.20
12438;DHT22;6283;51.330;12.374;2023-07-31T05:57:22;15.80;1.00
12438;DHT22;6283;51.330;12.374;2023-07-31T05:59:47;15.80;1.00
12438;DHT22;6283;51.330;12.374;2023-07-31T06:02:13;15.80;1.00
12438;DHT22;6283;51.330;12.374;2023-07-31T06:04:39;15.90;1.00
12438;DHT22;6283;51.330;12.374;2023-07-31T06:07:04;15.90;1.00
12438;DHT22;6283;51.330;12.374;2023-07-31T06:09:30;15.90;99.90
12438;DHT22;6283;51.330;12.374;2023-07-31T06:11:56;15.90;1.00
12438;DHT22;6283;51.330;12.374;2023-07-31T06:14:22;16.00;1.00
12438;DHT22;6283;51.330;12.374;2023-07-31T06:16:47;16.00;70.20
12438;DHT22;6283;51.330;12.374;2023-07-31T06:19:13;16.10;15.80
12438;DHT22;6283;51.330;12.374;2023-07-31T06:21:39;16.10;1.00
12438;DHT22;6283;51.330;12.374;2023-07-31T06:24:05;16.20;99.90
12438;DHT22;6283;51.330;12.374;2023-07-31T06:26:31;16.20;99.90
12438;DHT22;6283;51.330;12.374;2023-07-31T06:28:57;16.20;1.00
12438;DHT22;6283;51.330;12.374;2023-07-31T06:31:22;16.40;1.00
12438;DHT22;6283;51.330;12.374;2023-07-31T06:33:51;16.40;1.00
12438;DHT22;6283;51.330;12.374;2023-07-31T06:36:20;16.40;1.00
12438;DHT22;6283;51.330;12.374;2023-07-31T06:38:45;16.50;99.90
12438;DHT22;6283;51.330;12.374;2023-07-31T06:41:11;16.50;99.90
12438;DHT22;6283;51.330;12.374;2023-07-31T06:43:37;16.50;99.90
12438;DHT22;6283;51.330;12.374;2023-07-31T06:46:06;16.60;99.90
12438;DHT22;6283;51.330;12.374;2023-07-31T06:48:36;16.60;99.90
12438;DHT22;6283;51.330;12.374;2023-07-31T06:51:03;16.60;99.90
12438;DHT22;6283;51.330;12.374;2023-07-31T06:53:28;16.70;99.90
12438;DHT22;6283;51.330;12.374;2023-07-31T06:55:54;16.60;17.20
12438;DHT22;6283;51.330;12.374;2023-07-31T06:58:20;16.70;1.00
12438;DHT22;6283;51.330;12.374;2023-07-31T07:00:46;16.70;1.00
12438;DHT22;6283;51.330;12.374;2023-07-31T07:03:11;16.80;1.00
12438;DHT22;6283;51.330;12.374;2023-07-31T07:05:40;16.80;1.00
12438;DHT22;6283;51.330;12.374;2023-07-31T07:08:05;16.80;1.00
12438;DHT22;6283;51.330;12.374;2023-07-31T07:10:31;16.80;1.00
12438;DHT22;6283;51.330;12.374;2023-07-31T07:12:57;16.90;1.00
12438;DHT22;6283;51.330;12.374;2023-07-31T07:15:22;16.90;1.00
12438;DHT22;6283;51.330;12.374;2023-07-31T07:17:48;17.00;1.00
12438;DHT22;6283;51.330;12.374;2023-07-31T07:20:14;17.00;1.00
12438;DHT22;6283;51.330;12.374;2023-07-31T07:22:39;17.00;99.90
12438;DHT22;6283;51.330;12.374;2023-07-31T07:25:08;17.10;99.90
12438;DHT22;6283;51.330;12.374;2023-07-31T07:27:34;17.10;99.90
12438;DHT22;6283;51.330;12.374;2023-07-31T07:29:59;17.20;99.90
12438;DHT22;6283;51.330;12.374;2023-07-31T07:32:25;17.20;99.90
12438;DHT22;6283;51.330;12.374;2023-07-31T07:34:51;17.30;99.90
12438;DHT22;6283;51.330;12.374;2023-07-31T07:37:17;17.30;99.90
12438;DHT22;6283;51.330;12.374;2023-07-31T07:39:43;17.40;99.90
12438;DHT22;6283;51.330;12.374;2023-07-31T07:42:08;17.40;99.90
12438;DHT22;6283;51.330;12.374;2023-07-31T07:44:34;17.50;99.90
12438;DHT22;6283;51.330;12.374;2023-07-31T07:47:00;17.50;91.90
12438;DHT22;6283;51.330;12.374;2023-07-31T07:49:25;17.60;80.60
12438;DHT22;6283;51.330;12.374;2023-07-31T07:51:51;17.70;64.00
12438;DHT22;6283;51.330;12.374;2023-07-31T07:54:17;17.70;36.60
12438;DHT22;6283;51.330;12.374;2023-07-31T07:56:43;17.70;8.30
12438;DHT22;6283;51.330;12.374;2023-07-31T07:59:08;17.80;10.60
12438;DHT22;6283;51.330;12.374;2023-07-31T08:01:34;17.90;6.10
12438;DHT22;6283;51.330;12.374;2023-07-31T08:04:00;17.90;1.00
12438;DHT22;6283;51.330;12.374;2023-07-31T08:06:25;18.00;1.00
12438;DHT22;6283;51.330;12.374;2023-07-31T08:08:51;18.00;1.00
12438;DHT22;6283;51.330;12.374;2023-07-31T08:11:17;18.10;1.00
12438;DHT22;6283;51.330;12.374;2023-07-31T08:13:42;18.10;1.00
12438;DHT22;6283;51.330;12.374;2023-07-31T08:16:08;18.10;1.00
12438;DHT22;6283;51.330;12.374;2023-07-31T08:18:34;18.20;1.00
12438;DHT22;6283;51.330;12.374;2023-07-31T08:21:02;18.30;1.00
12438;DHT22;6283;51.330;12.374;2023-07-31T08:23:28;18.30;1.00
12438;DHT22;6283;51.330;12.374;2023-07-31T08:25:54;18.30;1.00
12438;DHT22;6283;51.330;12.374;2023-07-31T08:28:19;18.40;1.00
12438;DHT22;6283;51.330;12.374;2023-07-31T08:30:45;18.50;1.00
12438;DHT22;6283;51.330;12.374;2023-07-31T08:33:11;18.60;1.00
12438;DHT22;6283;51.330;12.374;2023-07-31T08:35:36;18.60;1.00
12438;DHT22;6283;51.330;12.374;2023-07-31T08:38:02;18.70;1.00
12438;DHT22;6283;51.330;12.374;2023-07-31T08:40:29;18.80;1.00
12438;DHT22;6283;51.330;12.374;2023-07-31T08:42:56;18.90;1.00
12438;DHT22;6283;51.330;12.374;2023-07-31T08:45:27;18.90;1.00
12438;DHT22;6283;51.330;12.374;2023-07-31T08:47:53;19.00;1.00
12438;DHT22;6283;51.330;12.374;2023-07-31T08:50:20;19.10;1.00
12438;DHT22;6283;51.330;12.374;2023-07-31T08:52:47;19.10;1.00
12438;DHT22;6283;51.330;12.374;2023-07-31T08:55:13;19.20;1.00
12438;DHT22;6283;51.330;12.374;2023-07-31T08:57:39;19.20;1.00
12438;DHT22;6283;51.330;12.374;2023-07-31T09:00:07;19.20;1.00
12438;DHT22;6283;51.330;12.374;2023-07-31T09:02:45;19.20;1.00
12438;DHT22;6283;51.330;12.374;2023-07-31T09:05:11;19.20;1.00
12438;DHT22;6283;51.330;12.374;2023-07-31T09:07:40;19.20;1.00
12438;DHT22;6283;51.330;12.374;2023-07-31T09:10:08;19.30;1.00
12438;DHT22;6283;51.330;12.374;2023-07-31T09:12:34;19.30;1.00
12438;DHT22;6283;51.330;12.374;2023-07-31T09:15:00;19.40;1.00
12438;DHT22;6283;51.330;12.374;2023-07-31T09:17:33;19.40;1.00
12438;DHT22;6283;51.330;12.374;2023-07-31T09:20:16;19.40;1.00
12438;DHT22;6283;51.330;12.374;2023-07-31T09:22:43;19.40;1.00
12438;DHT22;6283;51.330;12.374;2023-07-31T09:25:25;19.40;1.00
12438;DHT22;6283;51.330;12.374;2023-07-31T09:27:58;19.40;1.00
12438;DHT22;6283;51.330;12.374;2023-07-31T09:30:24;19.50;1.00
12438;DHT22;6283;51.330;12.374;2023-07-31T09:33:18;19.50;1.00
12438;DHT22;6283;51.330;12.374;2023-07-31T09:35:44;19.40;1.00
12438;DHT22;6283;51.330;12.374;2023-07-31T09:38:14;19.40;1.00
12438;DHT22;6283;51.330;12.374;2023-07-31T09:40:43;19.40;1.00
12438;DHT22;6283;51.330;12.374;2023-07-31T09:43:11;19.40;1.00
12438;DHT22;6283;51.330;12.374;2023-07-31T09:45:39;19.40;1.00
12438;DHT22;6283;51.330;12.374;2023-07-31T09:48:09;19.40;1.00
12438;DHT22;6283;51.330;12.374;2023-07-31T09:50:50;19.40;1.00
12438;DHT22;6283;51.330;12.374;2023-07-31T09:53:28;19.30;1.00
12438;DHT22;6283;51.330;12.374;2023-07-31T09:56:01;19.30;1.00
12438;DHT22;6283;51.330;12.374;2023-07-31T09:58:28;19.40;1.00
12438;DHT22;6283;51.330;12.374;2023-07-31T10:00:55;19.50;1.00
12438;DHT22;6283;51.330;12.374;2023-07-31T10:03:22;19.60;1.00
12438;DHT22;6283;51.330;12.374;2023-07-31T10:05:53;19.60;1.00
12438;DHT22;6283;51.330;12.374;2023-07-31T10:08:23;19.60;1.00
12438;DHT22;6283;51.330;12.374;2023-07-31T10:10:52;19.60;1.00
12438;DHT22;6283;51.330;12.374;2023-07-31T10:13:18;19.60;1.00
12438;DHT22;6283;51.330;12.374;2023-07-31T10:15:47;19.60;1.00
12438;DHT22;6283;51.330;12.374;2023-07-31T10:18:13;19.70;1.00
12438;DHT22;6283;51.330;12.374;2023-07-31T10:20:40;19.90;1.00
12438;DHT22;6283;51.330;12.374;2023-07-31T10:23:06;20.10;1.00
12438;DHT22;6283;51.330;12.374;2023-07-31T10:25:33;20.20;1.00
12438;DHT22;6283;51.330;12.374;2023-07-31T10:27:59;20.40;1.00
12438;DHT22;6283;51.330;12.374;2023-07-31T10:30:27;20.50;1.00
12438;DHT22;6283;51.330;12.374;2023-07-31T10:32:55;20.50;99.90
12438;DHT22;6283;51.330;12.374;2023-07-31T10:35:21;20.60;99.90
12438;DHT22;6283;51.330;12.374;2023-07-31T10:37:50;20.60;99.90
12438;DHT22;6283;51.330;12.374;2023-07-31T10:40:16;20.60;99.90
12438;DHT22;6283;51.330;12.374;2023-07-31T10:45:33;20.60;99.90
12438;DHT22;6283;51.330;12.374;2023-07-31T10:50:30;20.60;99.90
12438;DHT22;6283;51.330;12.374;2023-07-31T10:52:58;20.60;99.90
12438;DHT22;6283;51.330;12.374;2023-07-31T10:55:33;20.60;99.90
12438;DHT22;6283;51.330;12.374;2023-07-31T11:00:32;20.70;99.90
12438;DHT22;6283;51.330;12.374;2023-07-31T11:03:25;20.90;99.90
12438;DHT22;6283;51.330;12.374;2023-07-31T11:06:07;21.00;99.90
12438;DHT22;6283;51.330;12.374;2023-07-31T11:08:35;21.20;99.90
12438;DHT22;6283;51.330;12.374;2023-07-31T11:11:07;21.30;99.90
12438;DHT22;6283;51.330;12.374;2023-07-31T11:16:09;21.40;99.90
12438;DHT22;6283;51.330;12.374;2023-07-31T11:18:35;21.40;99.90
12438;DHT22;6283;51.330;12.374;2023-07-31T11:21:00;21.50;99.90
12438;DHT22;6283;51.330;12.374;2023-07-31T11:23:26;21.40;99.90
12438;DHT22;6283;51.330;12.374;2023-07-31T11:25:52;21.50;99.90
12438;DHT22;6283;51.330;12.374;2023-07-31T11:28:18;21.50;99.90
12438;DHT22;6283;51.330;12.374;2023-07-31T11:30:45;21.60;99.90
12438;DHT22;6283;51.330;12.374;2023-07-31T11:33:12;21.70;99.90
12438;DHT22;6283;51.330;12.374;2023-07-31T11:40:49;21.70;99.90
12438;DHT22;6283;51.330;12.374;2023-07-31T11:43:15;21.80;99.90
12438;DHT22;6283;51.330;12.374;2023-07-31T11:45:47;21.90;99.90
12438;DHT22;6283;51.330;12.374;2023-07-31T11:48:24;21.90;99.90
12438;DHT22;6283;51.330;12.374;2023-07-31T11:50:51;21.90;99.90
12438;DHT22;6283;51.330;12.374;2023-07-31T11:53:26;21.90;99.90
12438;DHT22;6283;51.330;12.374;2023-07-31T11:55:54;21.80;99.90
12438;DHT22;6283;51.330;12.374;2023-07-31T11:58:21;21.90;99.90
12438;DHT22;6283;51.330;12.374;2023-07-31T12:00:47;21.90;99.90
12438;DHT22;6283;51.330;12.374;2023-07-31T12:03:13;21.90;99.90
12438;DHT22;6283;51.330;12.374;2023-07-31T12:05:39;21.80;99.90
12438;DHT22;6283;51.330;12.374;2023-07-31T12:08:12;21.80;99.90
12438;DHT22;6283;51.330;12.374;2023-07-31T12:10:39;21.70;99.90
12438;DHT22;6283;51.330;12.374;2023-07-31T12:13:10;21.70;99.90
12438;DHT22;6283;51.330;12.374;2023-07-31T12:15:43;21.70;99.90
12438;DHT22;6283;51.330;12.374;2023-07-31T12:18:13;21.70;99.90
12438;DHT22;6283;51.330;12.374;2023-07-31T12:20:53;21.70;99.90
12438;DHT22;6283;51.330;12.374;2023-07-31T12:23:21;21.70;99.90
12438;DHT22;6283;51.330;12.374;2023-07-31T12:26:22;21.70;99.90
12438;DHT22;6283;51.330;12.374;2023-07-31T12:28:50;21.80;99.90
12438;DHT22;6283;51.330;12.374;2023-07-31T12:31:18;22.00;99.90
12438;DHT22;6283;51.330;12.374;2023-07-31T12:33:46;22.00;99.90
12438;DHT22;6283;51.330;12.374;2023-07-31T12:36:16;22.00;99.90
12438;DHT22;6283;51.330;12.374;2023-07-31T12:38:42;22.10;99.90
12438;DHT22;6283;51.330;12.374;2023-07-31T12:41:08;22.20;99.90
12438;DHT22;6283;51.330;12.374;2023-07-31T12:43:38;22.30;99.90
12438;DHT22;6283;51.330;12.374;2023-07-31T12:46:04;22.30;99.90
12438;DHT22;6283;51.330;12.374;2023-07-31T12:48:31;22.40;99.90
12438;DHT22;6283;51.330;12.374;2023-07-31T12:50:57;22.40;99.90
12438;DHT22;6283;51.330;12.374;2023-07-31T12:53:23;22.60;99.90
12438;DHT22;6283;51.330;12.374;2023-07-31T12:55:49;22.80;99.90
12438;DHT22;6283;51.330;12.374;2023-07-31T12:58:15;22.90;99.90
12438;DHT22;6283;51.330;12.374;2023-07-31T13:00:41;22.90;99.90
12438;DHT22;6283;51.330;12.374;2023-07-31T13:03:06;22.90;99.90
12438;DHT22;6283;51.330;12.374;2023-07-31T13:05:32;23.10;99.90
12438;DHT22;6283;51.330;12.374;2023-07-31T13:07:58;23.30;99.90
12438;DHT22;6283;51.330;12.374;2023-07-31T13:10:24;23.50;99.90
12438;DHT22;6283;51.330;12.374;2023-07-31T13:12:49;23.80;99.90
12438;DHT22;6283;51.330;12.374;2023-07-31T13:15:15;24.10;99.90
12438;DHT22;6283;51.330;12.374;2023-07-31T13:17:41;24.20;99.90
12438;DHT22;6283;51.330;12.374;2023-07-31T13:20:07;24.30;99.90
12438;DHT22;6283;51.330;12.374;2023-07-31T13:22:33;24.30;66.20
12438;DHT22;6283;51.330;12.374;2023-07-31T13:24:59;24.00;42.20
12438;DHT22;6283;51.330;12.374;2023-07-31T13:27:25;23.70;48.30
12438;DHT22;6283;51.330;12.374;2023-07-31T13:29:51;23.70;38.20
12438;DHT22;6283;51.330;12.374;2023-07-31T13:32:18;24.00;50.30
12438;DHT22;6283;51.330;12.374;2023-07-31T13:34:46;24.40;32.60
12438;DHT22;6283;51.330;12.374;2023-07-31T13:37:12;24.70;21.30
12438;DHT22;6283;51.330;12.374;2023-07-31T13:39:38;24.80;20.10
12438;DHT22;6283;51.330;12.374;2023-07-31T13:42:05;24.80;21.10
12438;DHT22;6283;51.330;12.374;2023-07-31T13:44:35;25.00;15.00
12438;DHT22;6283;51.330;12.374;2023-07-31T13:47:01;25.00;5.80
12438;DHT22;6283;51.330;12.374;2023-07-31T13:49:27;24.70;1.70
12438;DHT22;6283;51.330;12.374;2023-07-31T13:51:53;24.40;8.40
12438;DHT22;6283;51.330;12.374;2023-07-31T13:54:19;24.20;11.00
12438;DHT22;6283;51.330;12.374;2023-07-31T13:56:45;23.90;19.40
12438;DHT22;6283;51.330;12.374;2023-07-31T13:59:10;23.70;20.80
12438;DHT22;6283;51.330;12.374;2023-07-31T14:01:36;23.50;31.40
12438;DHT22;6283;51.330;12.374;2023-07-31T14:04:02;23.40;33.20
12438;DHT22;6283;51.330;12.374;2023-07-31T14:06:28;23.30;37.30
12438;DHT22;6283;51.330;12.374;2023-07-31T14:08:54;23.20;44.90
12438;DHT22;6283;51.330;12.374;2023-07-31T14:11:21;23.00;42.30
12438;DHT22;6283;51.330;12.374;2023-07-31T14:13:47;22.80;43.80
12438;DHT22;6283;51.330;12.374;2023-07-31T14:16:12;22.70;60.90
12438;DHT22;6283;51.330;12.374;2023-07-31T14:18:38;22.60;78.10
12438;DHT22;6283;51.330;12.374;2023-07-31T14:21:04;22.50;59.10
12438;DHT22;6283;51.330;12.374;2023-07-31T14:23:30;22.40;61.00
12438;DHT22;6283;51.330;12.374;2023-07-31T14:25:55;22.30;67.80
12438;DHT22;6283;51.330;12.374;2023-07-31T14:28:21;22.30;47.20
12438;DHT22;6283;51.330;12.374;2023-07-31T14:30:47;22.30;61.40
12438;DHT22;6283;51.330;12.374;2023-07-31T14:33:12;22.30;70.30
12438;DHT22;6283;51.330;12.374;2023-07-31T14:35:38;22.20;52.70
12438;DHT22;6283;51.330;12.374;2023-07-31T14:38:03;22.30;65.00
12438;DHT22;6283;51.330;12.374;2023-07-31T14:40:29;22.30;57.10
12438;DHT22;6283;51.330;12.374;2023-07-31T14:42:54;22.40;45.10
12438;DHT22;6283;51.330;12.374;2023-07-31T14:45:20;22.40;41.80
12438;DHT22;6283;51.330;12.374;2023-07-31T14:47:46;22.40;38.60
12438;DHT22;6283;51.330;12.374;2023-07-31T14:50:12;22.40;35.30
12438;DHT22;6283;51.330;12.374;2023-07-31T14:52:37;22.30;33.30
12438;DHT22;6283;51.330;12.374;2023-07-31T14:55:03;22.30;34.80
12438;DHT22;6283;51.330;12.374;2023-07-31T14:57:29;22.20;35.10
12438;DHT22;6283;51.330;12.374;2023-07-31T14:59:55;22.20;35.40
12438;DHT22;6283;51.330;12.374;2023-07-31T15:02:21;22.10;33.60
12438;DHT22;6283;51.330;12.374;2023-07-31T15:04:46;22.10;31.60
12438;DHT22;6283;51.330;12.374;2023-07-31T15:07:12;22.10;38.50
12438;DHT22;6283;51.330;12.374;2023-07-31T15:09:39;22.00;42.00
12438;DHT22;6283;51.330;12.374;2023-07-31T15:12:05;22.00;37.40
12438;DHT22;6283;51.330;12.374;2023-07-31T15:14:31;22.00;41.60
12438;DHT22;6283;51.330;12.374;2023-07-31T15:16:57;22.00;39.60
12438;DHT22;6283;51.330;12.374;2023-07-31T15:19:22;22.00;58.60
12438;DHT22;6283;51.330;12.374;2023-07-31T15:21:49;22.10;50.10
12438;DHT22;6283;51.330;12.374;2023-07-31T15:24:15;22.10;36.90
12438;DHT22;6283;51.330;12.374;2023-07-31T15:26:40;22.10;35.40
12438;DHT22;6283;51.330;12.374;2023-07-31T15:29:07;22.10;59.30
12438;DHT22;6283;51.330;12.374;2023-07-31T15:31:45;22.00;38.00
12438;DHT22;6283;51.330;12.374;2023-07-31T15:34:12;22.00;59.00
12438;DHT22;6283;51.330;12.374;2023-07-31T15:36:37;21.90;35.80
12438;DHT22;6283;51.330;12.374;2023-07-31T15:39:03;21.90;37.10
12438;DHT22;6283;51.330;12.374;2023-07-31T15:41:29;21.90;46.00
12438;DHT22;6283;51.330;12.374;2023-07-31T15:43:55;21.80;51.40
12438;DHT22;6283;51.330;12.374;2023-07-31T15:46:21;21.80;45.40
12438;DHT22;6283;51.330;12.374;2023-07-31T15:48:47;21.80;41.50
12438;DHT22;6283;51.330;12.374;2023-07-31T15:51:12;21.80;46.40
12438;DHT22;6283;51.330;12.374;2023-07-31T15:53:39;21.80;48.80
12438;DHT22;6283;51.330;12.374;2023-07-31T15:56:06;21.80;49.90